Accueil
METAR-TAF:

METAR-TAF

Aéroports :

Aéroport de Londres-Southend

Londres-Southend, Angleterre

latitude: 51-34N, longitude: 000-42E, altitude: 15 m

Observation

Le bulletin a été fait il y a 21 minutes, à 23:20 UTC
Vent calme
Température 13°C
Humidité 82%
Pression 1025 hPa
Visibilité 10 km ou plus
pas de nuages en-dessous de 1500 mètres et pas de cumulonimbus.

METAR: EGMC 232320Z 00000KT CAVOK 13/10 Q1025

Heure: 00:41 (23:41 UTC)

Prévision

Le bulletin a été fait il y a 42 minutes, à 22:59 UTC
Prévision valable du 24 à 00 UTC au 24 à 09 UTC
Vent 3 kt de est
Visibilité 10 km ou plus
pas de nuages en-dessous de 1500 mètres et pas de cumulonimbus.

TAF: EGMC 232259Z 2400/2409 08003KT CAVOK

Observations et prévisions météorologiques de plus de 4000 aéroports (messages METAR et TAF).

Les stations disponibles sont représentées par des disques jaunes et rouges sur la carte.

Passer la souris dessus pour voir le nom de la station.

Cliquer dessus pour voir les observations et prévisions météorologiques.

Pour changer de carte: cliquez sur les boutons verts avec une croix noire pour zoomer, sur le bouton vert avec un tiret pour effectuer un zoom arrière, ou sur les flèches vertes pour les cartes adjacentes.


METAR-TAF: